Dover, Missouri
Current Conditions -  °F | °C
As of 12:15 PM on Wednesday 28 Jan 2015 (Local Time) from KRCM Reporting Station
Clear Clear  
Wind Chill: 17°   Ceiling: Unl
Heat Index: 17°   Visibility: 10mi
Dew Point:   Wind: 18mph
Humidity: 37%   Direction: 160°SSE
Pressure: 29.89"   Gusts: 25mph
Location:  39.19°N, 93.69°W
Report Text: KRCM 281815Z AUTO 16016G22KT 10SM CLR 17/02 A2989 RMK AO2
Loading
Personal Weather Stations






























Interactive Weather Map New forecast layout! Learn more

10-Day Weather Forecast

Advertisements
Track Severe Weather on mobile